Webcam

2017/03/28 05:50 EBBR 280550Z 19006KT CAVOK 06/01 Q1020 NOSIG

Webcam image

--- Refresh now ---